sensor_id;sensor_type;location;lat;lon;timestamp;P1;durP1;ratioP1;P2;durP2;ratioP2
9280;SDS011;4679;47.966;7.958;2023-04-03T06:02:48;1.07;;;0.97;;
9280;SDS011;4679;47.966;7.958;2023-04-03T06:04:50;1.10;;;1.00;;
9280;SDS011;4679;47.966;7.958;2023-04-03T06:06:52;1.20;;;1.20;;
9280;SDS011;4679;47.966;7.958;2023-04-03T06:08:55;1.50;;;1.40;;
9280;SDS011;4679;47.966;7.958;2023-04-03T06:10:57;1.10;;;1.00;;
9280;SDS011;4679;47.966;7.958;2023-04-03T06:12:59;0.80;;;0.80;;
9280;SDS011;4679;47.966;7.958;2023-04-03T06:15:01;1.00;;;1.00;;
9280;SDS011;4679;47.966;7.958;2023-04-03T06:17:03;0.80;;;0.80;;
9280;SDS011;4679;47.966;7.958;2023-04-03T06:19:07;1.63;;;0.80;;
9280;SDS011;4679;47.966;7.958;2023-04-03T06:21:10;0.90;;;0.90;;
9280;SDS011;4679;47.966;7.958;2023-04-03T06:23:11;0.80;;;0.80;;
9280;SDS011;4679;47.966;7.958;2023-04-03T06:25:13;0.80;;;0.70;;
9280;SDS011;4679;47.966;7.958;2023-04-03T06:27:17;0.80;;;0.80;;
9280;SDS011;4679;47.966;7.958;2023-04-03T06:29:19;0.73;;;0.73;;
9280;SDS011;4679;47.966;7.958;2023-04-03T06:31:21;0.80;;;0.80;;
9280;SDS011;4679;47.966;7.958;2023-04-03T06:33:23;0.90;;;0.90;;
9280;SDS011;4679;47.966;7.958;2023-04-03T06:35:26;1.00;;;0.70;;
9280;SDS011;4679;47.966;7.958;2023-04-03T06:37:28;0.90;;;0.90;;
9280;SDS011;4679;47.966;7.958;2023-04-03T06:39:30;0.93;;;0.93;;
9280;SDS011;4679;47.966;7.958;2023-04-03T06:41:32;0.77;;;0.77;;
9280;SDS011;4679;47.966;7.958;2023-04-03T06:43:34;0.70;;;0.70;;
9280;SDS011;4679;47.966;7.958;2023-04-03T06:45:36;1.80;;;0.80;;
9280;SDS011;4679;47.966;7.958;2023-04-03T06:47:38;0.87;;;0.80;;
9280;SDS011;4679;47.966;7.958;2023-04-03T06:49:39;0.70;;;0.70;;
9280;SDS011;4679;47.966;7.958;2023-04-03T06:51:42;0.60;;;0.60;;
9280;SDS011;4679;47.966;7.958;2023-04-03T06:53:44;0.70;;;0.70;;
9280;SDS011;4679;47.966;7.958;2023-04-03T06:55:47;0.80;;;0.80;;
9280;SDS011;4679;47.966;7.958;2023-04-03T06:57:48;0.70;;;0.70;;
9280;SDS011;4679;47.966;7.958;2023-04-03T06:59:50;1.20;;;0.90;;
9280;SDS011;4679;47.966;7.958;2023-04-03T07:01:52;0.70;;;0.70;;
9280;SDS011;4679;47.966;7.958;2023-04-03T07:03:53;0.90;;;0.90;;
9280;SDS011;4679;47.966;7.958;2023-04-03T07:05:56;0.90;;;0.90;;
9280;SDS011;4679;47.966;7.958;2023-04-03T07:07:59;0.80;;;0.80;;
9280;SDS011;4679;47.966;7.958;2023-04-03T07:10:00;0.90;;;0.90;;
9280;SDS011;4679;47.966;7.958;2023-04-03T07:12:02;1.00;;;0.80;;
9280;SDS011;4679;47.966;7.958;2023-04-03T07:14:04;1.10;;;0.90;;
9280;SDS011;4679;47.966;7.958;2023-04-03T07:16:08;1.23;;;0.97;;
9280;SDS011;4679;47.966;7.958;2023-04-03T07:18:10;0.90;;;0.90;;
9280;SDS011;4679;47.966;7.958;2023-04-03T07:20:11;2.60;;;1.10;;
9280;SDS011;4679;47.966;7.958;2023-04-03T07:22:13;1.07;;;1.07;;
9280;SDS011;4679;47.966;7.958;2023-04-03T07:24:16;1.23;;;1.00;;
9280;SDS011;4679;47.966;7.958;2023-04-03T07:26:18;1.40;;;1.00;;
9280;SDS011;4679;47.966;7.958;2023-04-03T07:28:20;2.20;;;0.90;;
9280;SDS011;4679;47.966;7.958;2023-04-03T07:30:23;1.10;;;1.00;;
9280;SDS011;4679;47.966;7.958;2023-04-03T07:32:25;1.00;;;1.00;;
9280;SDS011;4679;47.966;7.958;2023-04-03T07:34:27;1.10;;;1.10;;
9280;SDS011;4679;47.966;7.958;2023-04-03T07:36:29;1.20;;;1.10;;
9280;SDS011;4679;47.966;7.958;2023-04-03T07:38:33;1.20;;;1.10;;
9280;SDS011;4679;47.966;7.958;2023-04-03T07:40:37;1.27;;;1.10;;
9280;SDS011;4679;47.966;7.958;2023-04-03T07:42:40;1.37;;;1.10;;
9280;SDS011;4679;47.966;7.958;2023-04-03T07:44:42;1.37;;;1.10;;
9280;SDS011;4679;47.966;7.958;2023-04-03T07:46:43;1.47;;;1.37;;
9280;SDS011;4679;47.966;7.958;2023-04-03T07:48:46;1.20;;;1.20;;
9280;SDS011;4679;47.966;7.958;2023-04-03T07:50:48;2.10;;;1.23;;
9280;SDS011;4679;47.966;7.958;2023-04-03T07:52:51;1.03;;;1.00;;
9280;SDS011;4679;47.966;7.958;2023-04-03T07:54:54;1.83;;;1.20;;
9280;SDS011;4679;47.966;7.958;2023-04-03T07:56:57;1.50;;;1.40;;
9280;SDS011;4679;47.966;7.958;2023-04-03T07:58:59;1.37;;;1.27;;
9280;SDS011;4679;47.966;7.958;2023-04-03T08:01:01;2.03;;;1.77;;
9280;SDS011;4679;47.966;7.958;2023-04-03T08:03:02;1.27;;;1.17;;
9280;SDS011;4679;47.966;7.958;2023-04-03T08:05:05;1.70;;;1.57;;
9280;SDS011;4679;47.966;7.958;2023-04-03T08:07:07;1.70;;;1.13;;
9280;SDS011;4679;47.966;7.958;2023-04-03T08:09:09;1.47;;;1.37;;
9280;SDS011;4679;47.966;7.958;2023-04-03T08:11:10;1.77;;;1.40;;
9280;SDS011;4679;47.966;7.958;2023-04-03T08:13:14;1.20;;;1.10;;
9280;SDS011;4679;47.966;7.958;2023-04-03T08:15:15;1.50;;;1.40;;
9280;SDS011;4679;47.966;7.958;2023-04-03T08:17:17;1.23;;;1.20;;
9280;SDS011;4679;47.966;7.958;2023-04-03T08:19:19;2.00;;;1.30;;
9280;SDS011;4679;47.966;7.958;2023-04-03T08:21:21;1.43;;;1.33;;
9280;SDS011;4679;47.966;7.958;2023-04-03T08:23:23;1.50;;;1.40;;
9280;SDS011;4679;47.966;7.958;2023-04-03T08:25:24;1.73;;;1.63;;
9280;SDS011;4679;47.966;7.958;2023-04-03T08:27:26;1.90;;;1.80;;
9280;SDS011;4679;47.966;7.958;2023-04-03T08:29:30;1.47;;;1.37;;
9280;SDS011;4679;47.966;7.958;2023-04-03T08:31:31;1.50;;;1.40;;
9280;SDS011;4679;47.966;7.958;2023-04-03T08:33:33;1.33;;;1.23;;
9280;SDS011;4679;47.966;7.958;2023-04-03T08:35:39;1.83;;;1.40;;
9280;SDS011;4679;47.966;7.958;2023-04-03T08:37:42;4.90;;;1.90;;
9280;SDS011;4679;47.966;7.958;2023-04-03T08:39:43;1.80;;;1.60;;
9280;SDS011;4679;47.966;7.958;2023-04-03T08:41:45;1.60;;;1.50;;
9280;SDS011;4679;47.966;7.958;2023-04-03T08:43:53;1.73;;;1.63;;
9280;SDS011;4679;47.966;7.958;2023-04-03T08:46:01;1.50;;;1.40;;
9280;SDS011;4679;47.966;7.958;2023-04-03T08:48:07;2.03;;;1.83;;
9280;SDS011;4679;47.966;7.958;2023-04-03T08:50:14;1.83;;;1.33;;
9280;SDS011;4679;47.966;7.958;2023-04-03T08:52:21;1.87;;;1.50;;
9280;SDS011;4679;47.966;7.958;2023-04-03T08:54:30;1.70;;;1.60;;
9280;SDS011;4679;47.966;7.958;2023-04-03T08:56:35;1.40;;;1.27;;
9280;SDS011;4679;47.966;7.958;2023-04-03T08:58:40;1.63;;;1.30;;
9280;SDS011;4679;47.966;7.958;2023-04-03T09:00:48;1.70;;;1.60;;
9280;SDS011;4679;47.966;7.958;2023-04-03T09:02:54;1.30;;;1.20;;
9280;SDS011;4679;47.966;7.958;2023-04-03T09:04:57;1.70;;;1.60;;
9280;SDS011;4679;47.966;7.958;2023-04-03T09:07:01;3.03;;;1.50;;
9280;SDS011;4679;47.966;7.958;2023-04-03T09:09:11;1.43;;;1.33;;
9280;SDS011;4679;47.966;7.958;2023-04-03T09:11:16;1.83;;;1.47;;
9280;SDS011;4679;47.966;7.958;2023-04-03T09:13:26;1.60;;;1.50;;
9280;SDS011;4679;47.966;7.958;2023-04-03T09:15:37;1.50;;;1.40;;
9280;SDS011;4679;47.966;7.958;2023-04-03T09:17:41;2.03;;;1.50;;
9280;SDS011;4679;47.966;7.958;2023-04-03T09:19:51;1.63;;;1.53;;
9280;SDS011;4679;47.966;7.958;2023-04-03T09:21:58;2.50;;;1.40;;
9280;SDS011;4679;47.966;7.958;2023-04-03T09:24:04;1.80;;;1.40;;
9280;SDS011;4679;47.966;7.958;2023-04-03T09:26:09;1.50;;;1.37;;
9280;SDS011;4679;47.966;7.958;2023-04-03T09:28:15;2.30;;;1.50;;
9280;SDS011;4679;47.966;7.958;2023-04-03T09:30:17;1.40;;;1.30;;
9280;SDS011;4679;47.966;7.958;2023-04-03T09:32:24;1.60;;;1.30;;
9280;SDS011;4679;47.966;7.958;2023-04-03T09:34:29;1.47;;;1.10;;
9280;SDS011;4679;47.966;7.958;2023-04-03T09:36:41;1.10;;;1.10;;
9280;SDS011;4679;47.966;7.958;2023-04-03T09:38:45;0.83;;;0.83;;
9280;SDS011;4679;47.966;7.958;2023-04-03T09:40:48;0.97;;;0.90;;
9280;SDS011;4679;47.966;7.958;2023-04-03T09:42:52;1.20;;;0.90;;
9280;SDS011;4679;47.966;7.958;2023-04-03T09:44:55;1.07;;;0.97;;
9280;SDS011;4679;47.966;7.958;2023-04-03T09:46:58;0.70;;;0.70;;
9280;SDS011;4679;47.966;7.958;2023-04-03T09:49:01;0.97;;;0.80;;
9280;SDS011;4679;47.966;7.958;2023-04-03T09:51:04;1.00;;;0.80;;
9280;SDS011;4679;47.966;7.958;2023-04-03T09:53:11;0.90;;;0.87;;
9280;SDS011;4679;47.966;7.958;2023-04-03T09:55:28;0.87;;;0.87;;
9280;SDS011;4679;47.966;7.958;2023-04-03T09:57:32;0.80;;;0.80;;
9280;SDS011;4679;47.966;7.958;2023-04-03T09:59:34;1.53;;;0.90;;
9280;SDS011;4679;47.966;7.958;2023-04-03T10:01:37;0.93;;;0.83;;
9280;SDS011;4679;47.966;7.958;2023-04-03T10:03:40;0.90;;;0.90;;
9280;SDS011;4679;47.966;7.958;2023-04-03T10:05:47;0.90;;;0.80;;
9280;SDS011;4679;47.966;7.958;2023-04-03T10:07:50;0.80;;;0.80;;
9280;SDS011;4679;47.966;7.958;2023-04-03T10:09:55;0.90;;;0.80;;
9280;SDS011;4679;47.966;7.958;2023-04-03T10:11:58;1.37;;;0.63;;
9280;SDS011;4679;47.966;7.958;2023-04-03T10:14:02;1.13;;;1.00;;
9280;SDS011;4679;47.966;7.958;2023-04-03T10:16:06;1.13;;;0.60;;
9280;SDS011;4679;47.966;7.958;2023-04-03T10:18:21;0.80;;;0.80;;
9280;SDS011;4679;47.966;7.958;2023-04-03T10:20:33;0.87;;;0.80;;
9280;SDS011;4679;47.966;7.958;2023-04-03T10:22:40;0.77;;;0.77;;
9280;SDS011;4679;47.966;7.958;2023-04-03T10:24:52;0.90;;;0.90;;
9280;SDS011;4679;47.966;7.958;2023-04-03T10:27:02;0.70;;;0.70;;
9280;SDS011;4679;47.966;7.958;2023-04-03T10:29:14;0.70;;;0.70;;
9280;SDS011;4679;47.966;7.958;2023-04-03T10:31:25;0.80;;;0.80;;
9280;SDS011;4679;47.966;7.958;2023-04-03T10:33:36;1.00;;;0.90;;
9280;SDS011;4679;47.966;7.958;2023-04-03T10:35:48;0.90;;;0.87;;
9280;SDS011;4679;47.966;7.958;2023-04-03T10:38:01;1.27;;;0.80;;
9280;SDS011;4679;47.966;7.958;2023-04-03T10:40:14;1.00;;;0.90;;
9280;SDS011;4679;47.966;7.958;2023-04-03T10:42:25;0.90;;;0.90;;
9280;SDS011;4679;47.966;7.958;2023-04-03T10:44:37;1.93;;;0.80;;
9280;SDS011;4679;47.966;7.958;2023-04-03T10:46:49;0.80;;;0.80;;
9280;SDS011;4679;47.966;7.958;2023-04-03T10:49:03;1.80;;;0.80;;
9280;SDS011;4679;47.966;7.958;2023-04-03T10:51:22;0.80;;;0.80;;
9280;SDS011;4679;47.966;7.958;2023-04-03T10:53:29;0.83;;;0.80;;
9280;SDS011;4679;47.966;7.958;2023-04-03T10:55:38;1.37;;;0.90;;
9280;SDS011;4679;47.966;7.958;2023-04-03T10:57:47;0.80;;;0.80;;
9280;SDS011;4679;47.966;7.958;2023-04-03T10:59:51;0.90;;;0.87;;
9280;SDS011;4679;47.966;7.958;2023-04-03T11:04:03;0.80;;;0.80;;
9280;SDS011;4679;47.966;7.958;2023-04-03T11:06:07;1.47;;;0.80;;
9280;SDS011;4679;47.966;7.958;2023-04-03T11:08:13;1.63;;;0.90;;
9280;SDS011;4679;47.966;7.958;2023-04-03T11:10:26;0.60;;;0.60;;
9280;SDS011;4679;47.966;7.958;2023-04-03T11:12:38;0.90;;;0.90;;
9280;SDS011;4679;47.966;7.958;2023-04-03T11:14:43;0.90;;;0.90;;
9280;SDS011;4679;47.966;7.958;2023-04-03T11:16:51;0.90;;;0.80;;
9280;SDS011;4679;47.966;7.958;2023-04-03T11:19:08;0.90;;;0.80;;
9280;SDS011;4679;47.966;7.958;2023-04-03T11:21:16;1.13;;;0.90;;
9280;SDS011;4679;47.966;7.958;2023-04-03T11:23:23;2.63;;;0.80;;
9280;SDS011;4679;47.966;7.958;2023-04-03T11:25:27;0.87;;;0.87;;
9280;SDS011;4679;47.966;7.958;2023-04-03T11:27:33;1.10;;;1.00;;
9280;SDS011;4679;47.966;7.958;2023-04-03T11:29:40;0.93;;;0.90;;
9280;SDS011;4679;47.966;7.958;2023-04-03T11:31:47;1.80;;;0.80;;
9280;SDS011;4679;47.966;7.958;2023-04-03T11:34:08;1.00;;;0.80;;
9280;SDS011;4679;47.966;7.958;2023-04-03T11:36:23;0.80;;;0.80;;
9280;SDS011;4679;47.966;7.958;2023-04-03T11:38:28;1.17;;;0.90;;
9280;SDS011;4679;47.966;7.958;2023-04-03T11:40:35;1.10;;;0.97;;
9280;SDS011;4679;47.966;7.958;2023-04-03T11:42:40;1.97;;;1.10;;
9280;SDS011;4679;47.966;7.958;2023-04-03T11:44:46;1.10;;;1.00;;
9280;SDS011;4679;47.966;7.958;2023-04-03T11:46:52;1.80;;;1.53;;
9280;SDS011;4679;47.966;7.958;2023-04-03T11:48:55;1.00;;;1.00;;
9280;SDS011;4679;47.966;7.958;2023-04-03T11:50:58;0.80;;;0.80;;
9280;SDS011;4679;47.966;7.958;2023-04-03T11:53:01;0.90;;;0.90;;
9280;SDS011;4679;47.966;7.958;2023-04-03T11:58:02;1.37;;;1.10;;
9280;SDS011;4679;47.966;7.958;2023-04-03T12:02:53;0.83;;;0.83;;
9280;SDS011;4679;47.966;7.958;2023-04-03T12:07:27;0.97;;;0.90;;
9280;SDS011;4679;47.966;7.958;2023-04-03T12:09:33;1.40;;;1.30;;
9280;SDS011;4679;47.966;7.958;2023-04-03T12:11:55;0.93;;;0.90;;
9280;SDS011;4679;47.966;7.958;2023-04-03T12:14:03;2.33;;;1.00;;
9280;SDS011;4679;47.966;7.958;2023-04-03T12:16:06;1.10;;;1.00;;
9280;SDS011;4679;47.966;7.958;2023-04-03T12:20:54;1.10;;;1.00;;
9280;SDS011;4679;47.966;7.958;2023-04-03T12:23:08;0.93;;;0.93;;
9280;SDS011;4679;47.966;7.958;2023-04-03T12:25:47;0.90;;;0.90;;
9280;SDS011;4679;47.966;7.958;2023-04-03T12:27:50;1.20;;;1.10;;
9280;SDS011;4679;47.966;7.958;2023-04-03T12:29:55;0.93;;;0.83;;
9280;SDS011;4679;47.966;7.958;2023-04-03T12:32:06;0.90;;;0.90;;
9280;SDS011;4679;47.966;7.958;2023-04-03T12:34:17;1.13;;;1.00;;
9280;SDS011;4679;47.966;7.958;2023-04-03T12:36:30;0.80;;;0.80;;
9280;SDS011;4679;47.966;7.958;2023-04-03T12:38:45;0.90;;;0.90;;
9280;SDS011;4679;47.966;7.958;2023-04-03T12:41:01;1.43;;;1.10;;
9280;SDS011;4679;47.966;7.958;2023-04-03T12:43:22;1.20;;;1.10;;
9280;SDS011;4679;47.966;7.958;2023-04-03T12:45:40;1.77;;;1.00;;
9280;SDS011;4679;47.966;7.958;2023-04-03T12:47:44;1.07;;;0.90;;
9280;SDS011;4679;47.966;7.958;2023-04-03T12:49:49;0.80;;;0.80;;
9280;SDS011;4679;47.966;7.958;2023-04-03T12:51:53;1.00;;;0.97;;
9280;SDS011;4679;47.966;7.958;2023-04-03T12:53:58;0.90;;;0.90;;
9280;SDS011;4679;47.966;7.958;2023-04-03T12:58:22;1.80;;;0.77;;
9280;SDS011;4679;47.966;7.958;2023-04-03T13:00:29;1.17;;;1.07;;
9280;SDS011;4679;47.966;7.958;2023-04-03T13:02:34;1.27;;;0.80;;
9280;SDS011;4679;47.966;7.958;2023-04-03T13:04:37;1.20;;;0.60;;
9280;SDS011;4679;47.966;7.958;2023-04-03T13:06:40;0.90;;;0.90;;
9280;SDS011;4679;47.966;7.958;2023-04-03T13:08:48;0.87;;;0.87;;
9280;SDS011;4679;47.966;7.958;2023-04-03T13:10:53;0.80;;;0.80;;
9280;SDS011;4679;47.966;7.958;2023-04-03T13:13:06;1.17;;;1.07;;
9280;SDS011;4679;47.966;7.958;2023-04-03T13:15:14;1.03;;;1.00;;
9280;SDS011;4679;47.966;7.958;2023-04-03T13:17:19;1.10;;;1.00;;
9280;SDS011;4679;47.966;7.958;2023-04-03T13:19:22;1.10;;;1.00;;
9280;SDS011;4679;47.966;7.958;2023-04-03T13:21:25;1.00;;;1.00;;
9280;SDS011;4679;47.966;7.958;2023-04-03T13:23:30;1.40;;;1.10;;
9280;SDS011;4679;47.966;7.958;2023-04-03T13:25:33;2.20;;;0.90;;
9280;SDS011;4679;47.966;7.958;2023-04-03T13:27:38;1.20;;;1.10;;
9280;SDS011;4679;47.966;7.958;2023-04-03T13:29:42;1.10;;;1.00;;
9280;SDS011;4679;47.966;7.958;2023-04-03T13:31:44;1.10;;;1.00;;
9280;SDS011;4679;47.966;7.958;2023-04-03T13:33:52;1.20;;;1.10;;
9280;SDS011;4679;47.966;7.958;2023-04-03T13:35:56;2.57;;;1.00;;
9280;SDS011;4679;47.966;7.958;2023-04-03T13:38:03;2.20;;;0.80;;
9280;SDS011;4679;47.966;7.958;2023-04-03T13:40:10;0.87;;;0.87;;
9280;SDS011;4679;47.966;7.958;2023-04-03T13:42:15;0.80;;;0.80;;
9280;SDS011;4679;47.966;7.958;2023-04-03T13:44:25;1.07;;;0.80;;
9280;SDS011;4679;47.966;7.958;2023-04-03T13:46:30;1.40;;;0.93;;
9280;SDS011;4679;47.966;7.958;2023-04-03T13:48:35;1.30;;;1.20;;
9280;SDS011;4679;47.966;7.958;2023-04-03T13:50:58;2.43;;;1.20;;
9280;SDS011;4679;47.966;7.958;2023-04-03T13:53:03;1.50;;;1.20;;
9280;SDS011;4679;47.966;7.958;2023-04-03T13:55:16;1.10;;;0.80;;
9280;SDS011;4679;47.966;7.958;2023-04-03T13:57:22;0.80;;;0.80;;
9280;SDS011;4679;47.966;7.958;2023-04-03T13:59:28;1.10;;;0.70;;
9280;SDS011;4679;47.966;7.958;2023-04-03T14:01:33;1.37;;;0.90;;
9280;SDS011;4679;47.966;7.958;2023-04-03T14:03:43;1.60;;;0.90;;
9280;SDS011;4679;47.966;7.958;2023-04-03T14:05:46;1.03;;;0.90;;
9280;SDS011;4679;47.966;7.958;2023-04-03T14:07:48;1.50;;;0.90;;
9280;SDS011;4679;47.966;7.958;2023-04-03T14:09:50;1.10;;;0.97;;
9280;SDS011;4679;47.966;7.958;2023-04-03T14:11:53;0.77;;;0.77;;
9280;SDS011;4679;47.966;7.958;2023-04-03T14:13:55;1.17;;;0.80;;
9280;SDS011;4679;47.966;7.958;2023-04-03T14:16:03;1.03;;;0.97;;
9280;SDS011;4679;47.966;7.958;2023-04-03T14:18:05;0.97;;;0.73;;
9280;SDS011;4679;47.966;7.958;2023-04-03T14:20:10;1.03;;;0.80;;
9280;SDS011;4679;47.966;7.958;2023-04-03T14:22:17;2.27;;;1.00;;
9280;SDS011;4679;47.966;7.958;2023-04-03T14:24:22;0.90;;;0.90;;
9280;SDS011;4679;47.966;7.958;2023-04-03T14:26:24;1.03;;;1.00;;
9280;SDS011;4679;47.966;7.958;2023-04-03T14:28:26;2.10;;;1.00;;
9280;SDS011;4679;47.966;7.958;2023-04-03T14:30:30;1.63;;;0.80;;
9280;SDS011;4679;47.966;7.958;2023-04-03T14:32:36;0.80;;;0.80;;
9280;SDS011;4679;47.966;7.958;2023-04-03T14:34:38;1.70;;;0.80;;
9280;SDS011;4679;47.966;7.958;2023-04-03T14:36:40;0.80;;;0.80;;
9280;SDS011;4679;47.966;7.958;2023-04-03T14:38:44;1.03;;;0.80;;
9280;SDS011;4679;47.966;7.958;2023-04-03T14:40:46;1.20;;;0.80;;
9280;SDS011;4679;47.966;7.958;2023-04-03T14:42:48;1.10;;;0.90;;
9280;SDS011;4679;47.966;7.958;2023-04-03T14:44:50;0.70;;;0.70;;
9280;SDS011;4679;47.966;7.958;2023-04-03T14:46:52;1.50;;;1.27;;
9280;SDS011;4679;47.966;7.958;2023-04-03T14:48:55;1.90;;;0.90;;
9280;SDS011;4679;47.966;7.958;2023-04-03T14:50:57;1.70;;;0.90;;
9280;SDS011;4679;47.966;7.958;2023-04-03T14:52:59;1.83;;;0.87;;
9280;SDS011;4679;47.966;7.958;2023-04-03T14:55:01;0.80;;;0.80;;
9280;SDS011;4679;47.966;7.958;2023-04-03T14:57:08;0.80;;;0.80;;
9280;SDS011;4679;47.966;7.958;2023-04-03T14:59:14;0.80;;;0.80;;
9280;SDS011;4679;47.966;7.958;2023-04-03T15:01:17;0.83;;;0.83;;
9280;SDS011;4679;47.966;7.958;2023-04-03T15:03:20;0.93;;;0.70;;
9280;SDS011;4679;47.966;7.958;2023-04-03T15:05:24;0.80;;;0.80;;
9280;SDS011;4679;47.966;7.958;2023-04-03T15:07:27;0.80;;;0.80;;
9280;SDS011;4679;47.966;7.958;2023-04-03T15:09:31;0.70;;;0.70;;
9280;SDS011;4679;47.966;7.958;2023-04-03T15:11:33;0.90;;;0.90;;
9280;SDS011;4679;47.966;7.958;2023-04-03T15:13:34;1.80;;;1.10;;
9280;SDS011;4679;47.966;7.958;2023-04-03T15:15:36;1.40;;;1.20;;
9280;SDS011;4679;47.966;7.958;2023-04-03T15:17:38;1.73;;;0.90;;
9280;SDS011;4679;47.966;7.958;2023-04-03T15:19:40;6.23;;;0.90;;
9280;SDS011;4679;47.966;7.958;2023-04-03T15:21:45;1.83;;;0.80;;
9280;SDS011;4679;47.966;7.958;2023-04-03T15:23:47;1.10;;;0.80;;
9280;SDS011;4679;47.966;7.958;2023-04-03T15:25:49;1.17;;;0.70;;
9280;SDS011;4679;47.966;7.958;2023-04-03T15:27:52;1.13;;;0.90;;
9280;SDS011;4679;47.966;7.958;2023-04-03T15:29:54;0.70;;;0.70;;
9280;SDS011;4679;47.966;7.958;2023-04-03T15:31:57;2.73;;;0.93;;
9280;SDS011;4679;47.966;7.958;2023-04-03T15:33:59;1.60;;;1.00;;
9280;SDS011;4679;47.966;7.958;2023-04-03T15:36:01;1.00;;;1.00;;
9280;SDS011;4679;47.966;7.958;2023-04-03T15:38:05;0.80;;;0.80;;
9280;SDS011;4679;47.966;7.958;2023-04-03T15:40:07;0.80;;;0.80;;
9280;SDS011;4679;47.966;7.958;2023-04-03T15:42:10;1.93;;;0.90;;
9280;SDS011;4679;47.966;7.958;2023-04-03T15:44:12;1.10;;;0.90;;
9280;SDS011;4679;47.966;7.958;2023-04-03T15:46:17;0.80;;;0.70;;
9280;SDS011;4679;47.966;7.958;2023-04-03T15:48:19;0.97;;;0.70;;
9280;SDS011;4679;47.966;7.958;2023-04-03T15:50:21;1.30;;;0.70;;
9280;SDS011;4679;47.966;7.958;2023-04-03T15:52:24;2.03;;;0.80;;
9280;SDS011;4679;47.966;7.958;2023-04-03T15:54:27;0.80;;;0.80;;
9280;SDS011;4679;47.966;7.958;2023-04-03T15:56:29;0.97;;;0.90;;
9280;SDS011;4679;47.966;7.958;2023-04-03T15:58:31;1.13;;;0.80;;
9280;SDS011;4679;47.966;7.958;2023-04-03T16:00:33;0.70;;;0.70;;
9280;SDS011;4679;47.966;7.958;2023-04-03T16:02:36;1.37;;;0.90;;
9280;SDS011;4679;47.966;7.958;2023-04-03T16:04:38;1.70;;;1.60;;
9280;SDS011;4679;47.966;7.958;2023-04-03T16:06:40;0.70;;;0.70;;
9280;SDS011;4679;47.966;7.958;2023-04-03T16:08:43;1.30;;;1.03;;
9280;SDS011;4679;47.966;7.958;2023-04-03T16:10:47;2.50;;;0.90;;
9280;SDS011;4679;47.966;7.958;2023-04-03T16:12:49;4.30;;;1.00;;
9280;SDS011;4679;47.966;7.958;2023-04-03T16:14:51;1.87;;;1.20;;
9280;SDS011;4679;47.966;7.958;2023-04-03T16:16:53;1.13;;;0.93;;
9280;SDS011;4679;47.966;7.958;2023-04-03T16:18:54;1.67;;;0.97;;
9280;SDS011;4679;47.966;7.958;2023-04-03T16:20:57;1.10;;;1.00;;
9280;SDS011;4679;47.966;7.958;2023-04-03T16:22:58;1.00;;;0.90;;
9280;SDS011;4679;47.966;7.958;2023-04-03T16:25:01;1.87;;;1.50;;
9280;SDS011;4679;47.966;7.958;2023-04-03T16:27:04;0.77;;;0.77;;
9280;SDS011;4679;47.966;7.958;2023-04-03T16:29:06;0.93;;;0.77;;
9280;SDS011;4679;47.966;7.958;2023-04-03T16:31:07;1.70;;;0.87;;
9280;SDS011;4679;47.966;7.958;2023-04-03T16:33:10;1.27;;;0.80;;
9280;SDS011;4679;47.966;7.958;2023-04-03T16:35:12;0.90;;;0.90;;
9280;SDS011;4679;47.966;7.958;2023-04-03T16:37:14;1.57;;;1.10;;
9280;SDS011;4679;47.966;7.958;2023-04-03T16:39:16;0.80;;;0.80;;
9280;SDS011;4679;47.966;7.958;2023-04-03T16:41:17;1.20;;;1.00;;
9280;SDS011;4679;47.966;7.958;2023-04-03T16:43:21;1.93;;;0.90;;
9280;SDS011;4679;47.966;7.958;2023-04-03T16:45:22;0.80;;;0.80;;
9280;SDS011;4679;47.966;7.958;2023-04-03T16:47:24;0.90;;;0.80;;
9280;SDS011;4679;47.966;7.958;2023-04-03T16:49:25;0.77;;;0.77;;
9280;SDS011;4679;47.966;7.958;2023-04-03T16:51:33;1.90;;;0.80;;
9280;SDS011;4679;47.966;7.958;2023-04-03T16:53:34;1.67;;;0.80;;
9280;SDS011;4679;47.966;7.958;2023-04-03T16:55:36;1.50;;;1.17;;
9280;SDS011;4679;47.966;7.958;2023-04-03T16:57:39;1.17;;;0.70;;
9280;SDS011;4679;47.966;7.958;2023-04-03T16:59:42;1.20;;;0.80;;
9280;SDS011;4679;47.966;7.958;2023-04-03T17:01:44;1.10;;;0.83;;
9280;SDS011;4679;47.966;7.958;2023-04-03T17:03:46;1.13;;;0.93;;
9280;SDS011;4679;47.966;7.958;2023-04-03T17:05:48;0.70;;;0.70;;
9280;SDS011;4679;47.966;7.958;2023-04-03T17:07:50;1.83;;;0.63;;
9280;SDS011;4679;47.966;7.958;2023-04-03T17:09:51;0.60;;;0.60;;
9280;SDS011;4679;47.966;7.958;2023-04-03T17:11:54;1.73;;;0.70;;
9280;SDS011;4679;47.966;7.958;2023-04-03T17:13:56;1.43;;;0.80;;
9280;SDS011;4679;47.966;7.958;2023-04-03T17:15:59;3.40;;;1.00;;
9280;SDS011;4679;47.966;7.958;2023-04-03T17:18:03;0.67;;;0.67;;
9280;SDS011;4679;47.966;7.958;2023-04-03T17:20:05;0.90;;;0.80;;
9280;SDS011;4679;47.966;7.958;2023-04-03T17:22:08;0.70;;;0.70;;
9280;SDS011;4679;47.966;7.958;2023-04-03T17:24:10;1.47;;;0.70;;
9280;SDS011;4679;47.966;7.958;2023-04-03T17:26:14;1.03;;;0.70;;
9280;SDS011;4679;47.966;7.958;2023-04-03T17:28:15;1.00;;;0.90;;
9280;SDS011;4679;47.966;7.958;2023-04-03T17:30:17;1.20;;;0.70;;
9280;SDS011;4679;47.966;7.958;2023-04-03T17:32:20;0.80;;;0.70;;
9280;SDS011;4679;47.966;7.958;2023-04-03T17:34:23;0.90;;;0.80;;
9280;SDS011;4679;47.966;7.958;2023-04-03T17:36:24;0.60;;;0.60;;
9280;SDS011;4679;47.966;7.958;2023-04-03T17:38:26;1.90;;;0.90;;
9280;SDS011;4679;47.966;7.958;2023-04-03T17:40:28;0.93;;;0.80;;
9280;SDS011;4679;47.966;7.958;2023-04-03T17:42:29;1.90;;;0.70;;
9280;SDS011;4679;47.966;7.958;2023-04-03T17:44:31;1.80;;;0.77;;
9280;SDS011;4679;47.966;7.958;2023-04-03T17:46:33;0.67;;;0.67;;
9280;SDS011;4679;47.966;7.958;2023-04-03T17:48:37;0.83;;;0.73;;
9280;SDS011;4679;47.966;7.958;2023-04-03T17:50:41;1.57;;;0.70;;
9280;SDS011;4679;47.966;7.958;2023-04-03T17:52:42;1.03;;;0.93;;
9280;SDS011;4679;47.966;7.958;2023-04-03T17:54:44;1.33;;;0.70;;
9280;SDS011;4679;47.966;7.958;2023-04-03T17:56:46;0.80;;;0.80;;
9280;SDS011;4679;47.966;7.958;2023-04-03T17:58:48;0.97;;;0.80;;
9280;SDS011;4679;47.966;7.958;2023-04-03T18:00:50;2.43;;;1.57;;
9280;SDS011;4679;47.966;7.958;2023-04-03T18:02:53;2.27;;;0.80;;
9280;SDS011;4679;47.966;7.958;2023-04-03T18:04:56;1.10;;;0.90;;
9280;SDS011;4679;47.966;7.958;2023-04-03T18:06:58;0.93;;;0.70;;
9280;SDS011;4679;47.966;7.958;2023-04-03T18:09:03;1.13;;;0.70;;
9280;SDS011;4679;47.966;7.958;2023-04-03T18:11:07;1.13;;;0.70;;
9280;SDS011;4679;47.966;7.958;2023-04-03T18:13:10;2.03;;;1.30;;
9280;SDS011;4679;47.966;7.958;2023-04-03T18:15:12;2.40;;;1.43;;
9280;SDS011;4679;47.966;7.958;2023-04-03T18:17:13;1.20;;;1.10;;
9280;SDS011;4679;47.966;7.958;2023-04-03T18:19:15;0.70;;;0.70;;
9280;SDS011;4679;47.966;7.958;2023-04-03T18:21:18;1.20;;;0.90;;
9280;SDS011;4679;47.966;7.958;2023-04-03T18:23:20;1.80;;;0.80;;
9280;SDS011;4679;47.966;7.958;2023-04-03T18:25:22;0.90;;;0.70;;
9280;SDS011;4679;47.966;7.958;2023-04-03T18:27:24;2.30;;;0.80;;
9280;SDS011;4679;47.966;7.958;2023-04-03T18:29:28;0.70;;;0.70;;
9280;SDS011;4679;47.966;7.958;2023-04-03T18:31:32;2.70;;;0.80;;
9280;SDS011;4679;47.966;7.958;2023-04-03T18:33:36;1.47;;;0.70;;
9280;SDS011;4679;47.966;7.958;2023-04-03T18:35:38;2.20;;;0.70;;
9280;SDS011;4679;47.966;7.958;2023-04-03T18:37:41;2.00;;;0.90;;
9280;SDS011;4679;47.966;7.958;2023-04-03T18:39:43;2.53;;;0.90;;
9280;SDS011;4679;47.966;7.958;2023-04-03T18:41:44;2.37;;;0.87;;
9280;SDS011;4679;47.966;7.958;2023-04-03T18:43:47;1.07;;;0.87;;
9280;SDS011;4679;47.966;7.958;2023-04-03T18:45:49;1.50;;;0.90;;
9280;SDS011;4679;47.966;7.958;2023-04-03T18:47:50;2.30;;;1.03;;
9280;SDS011;4679;47.966;7.958;2023-04-03T18:49:52;0.90;;;0.70;;
9280;SDS011;4679;47.966;7.958;2023-04-03T18:51:54;1.90;;;0.70;;
9280;SDS011;4679;47.966;7.958;2023-04-03T18:53:57;1.57;;;0.80;;
9280;SDS011;4679;47.966;7.958;2023-04-03T18:55:59;1.53;;;0.90;;
9280;SDS011;4679;47.966;7.958;2023-04-03T18:58:01;1.90;;;0.80;;
9280;SDS011;4679;47.966;7.958;2023-04-03T19:00:03;2.07;;;0.80;;
9280;SDS011;4679;47.966;7.958;2023-04-03T19:02:06;1.10;;;0.90;;
9280;SDS011;4679;47.966;7.958;2023-04-03T19:04:09;0.90;;;0.90;;
9280;SDS011;4679;47.966;7.958;2023-04-03T19:06:10;1.40;;;1.10;;
9280;SDS011;4679;47.966;7.958;2023-04-03T19:08:13;0.90;;;0.80;;
9280;SDS011;4679;47.966;7.958;2023-04-03T19:10:16;1.30;;;0.90;;